createdAt,value
2023-08-04T00:01:40.965Z,30.98
2023-08-04T00:12:00.452Z,30.77
2023-08-04T00:22:28.382Z,30.60
2023-08-04T00:33:59.724Z,30.33
2023-08-04T00:36:57.203Z,30.28
2023-08-04T00:40:45.809Z,30.30
2023-08-04T00:43:21.923Z,30.23
2023-08-04T00:45:54.549Z,30.21
2023-08-04T00:48:31.761Z,30.19
2023-08-04T00:51:04.305Z,30.15
2023-08-04T00:53:36.689Z,30.06
2023-08-04T00:56:09.284Z,30.00
2023-08-04T00:58:41.886Z,29.95
2023-08-04T01:01:14.580Z,29.90
2023-08-04T01:03:53.116Z,29.88
2023-08-04T01:06:31.323Z,29.85
2023-08-04T01:09:10.030Z,29.79
2023-08-04T01:17:57.572Z,29.62
2023-08-04T01:20:31.450Z,29.52
2023-08-04T01:23:04.152Z,29.46
2023-08-04T01:25:37.860Z,29.42
2023-08-04T01:28:14.013Z,29.36
2023-08-04T01:30:50.133Z,29.25
2023-08-04T01:33:22.567Z,29.19
2023-08-04T01:42:11.232Z,29.17
2023-08-04T01:44:43.811Z,29.09
2023-08-04T01:47:16.288Z,28.98
2023-08-04T01:49:48.672Z,28.93
2023-08-04T01:52:21.238Z,28.91
2023-08-04T01:54:53.830Z,28.88
2023-08-04T01:57:26.283Z,28.87
2023-08-04T01:59:58.737Z,28.88
2023-08-04T02:02:31.933Z,28.86
2023-08-04T02:05:04.390Z,28.75
2023-08-04T02:07:37.411Z,28.68
2023-08-04T02:10:11.804Z,28.61
2023-08-04T02:12:44.476Z,28.57
2023-08-04T02:15:17.570Z,28.50
2023-08-04T02:17:51.829Z,28.47
2023-08-04T02:20:24.408Z,28.40
2023-08-04T02:22:57.038Z,28.32
2023-08-04T02:25:29.388Z,28.25
2023-08-04T02:28:01.787Z,28.22
2023-08-04T02:30:34.162Z,28.24
2023-08-04T02:33:06.762Z,28.21
2023-08-04T02:35:39.215Z,28.18
2023-08-04T02:38:12.643Z,28.16
2023-08-04T02:40:45.078Z,28.18
2023-08-04T02:43:17.574Z,28.17
2023-08-04T02:45:53.210Z,28.11
2023-08-04T02:48:25.870Z,28.03
2023-08-04T02:51:05.372Z,27.95
2023-08-04T02:53:38.854Z,27.87
2023-08-04T02:56:14.967Z,27.80
2023-08-04T02:58:48.716Z,27.79
2023-08-04T03:01:21.235Z,27.79
2023-08-04T03:03:53.770Z,27.79
2023-08-04T03:06:26.392Z,27.76
2023-08-04T03:08:58.952Z,27.74
2023-08-04T03:11:31.514Z,27.70
2023-08-04T03:14:04.072Z,27.72
2023-08-04T03:16:36.564Z,27.75
2023-08-04T03:19:08.965Z,27.72
2023-08-04T03:21:41.645Z,27.67
2023-08-04T03:24:13.999Z,27.61
2023-08-04T03:26:46.670Z,27.57
2023-08-04T03:29:19.058Z,27.53
2023-08-04T03:31:51.755Z,27.46
2023-08-04T03:34:24.358Z,27.39
2023-08-04T03:36:56.692Z,27.35
2023-08-04T03:39:29.482Z,27.30
2023-08-04T03:42:01.830Z,27.28
2023-08-04T03:44:34.414Z,27.21
2023-08-04T03:47:07.854Z,27.13
2023-08-04T03:49:42.029Z,27.08
2023-08-04T03:52:14.952Z,27.08
2023-08-04T03:54:47.556Z,27.08
2023-08-04T03:57:20.035Z,27.10
2023-08-04T03:59:53.486Z,27.11
2023-08-04T04:02:25.958Z,27.14
2023-08-04T04:04:58.491Z,27.17
2023-08-04T04:07:30.940Z,27.21
2023-08-04T04:10:03.443Z,27.27
2023-08-04T04:12:37.607Z,27.26
2023-08-04T04:15:12.265Z,27.23
2023-08-04T04:17:44.676Z,27.24
2023-08-04T04:30:22.974Z,27.29
2023-08-04T04:32:55.526Z,27.26
2023-08-04T04:35:28.098Z,27.28
2023-08-04T04:38:00.505Z,27.30
2023-08-04T04:40:32.986Z,27.34
2023-08-04T04:43:05.382Z,27.35
2023-08-04T04:45:38.076Z,27.35
2023-08-04T04:48:10.638Z,27.38
2023-08-04T04:50:43.846Z,27.33
2023-08-04T04:53:16.490Z,27.33
2023-08-04T04:55:49.012Z,27.37
2023-08-04T04:58:21.190Z,27.44
2023-08-04T05:00:53.475Z,27.49
2023-08-04T05:03:25.866Z,27.54
2023-08-04T05:05:58.508Z,27.53
2023-08-04T05:08:31.234Z,27.51
2023-08-04T05:11:03.598Z,27.56
2023-08-04T05:13:36.005Z,27.61
2023-08-04T05:16:08.783Z,27.65
2023-08-04T05:18:41.157Z,27.71
2023-08-04T05:21:13.513Z,27.71
2023-08-04T05:23:46.107Z,27.71
2023-08-04T05:26:18.620Z,27.77
2023-08-04T05:28:51.178Z,27.85
2023-08-04T05:37:05.554Z,28.03
2023-08-04T05:39:37.878Z,28.03
2023-08-04T05:42:11.613Z,28.05
2023-08-04T05:44:44.713Z,28.10
2023-08-04T05:47:19.429Z,28.12
2023-08-04T05:50:03.563Z,28.17
2023-08-04T05:52:40.463Z,28.24
2023-08-04T05:55:17.037Z,28.32
2023-08-04T05:57:50.601Z,28.41
2023-08-04T06:00:31.259Z,28.50
2023-08-04T06:03:05.799Z,28.54
2023-08-04T06:05:43.385Z,28.61
2023-08-04T06:08:16.797Z,28.70
2023-08-04T06:10:49.985Z,28.80
2023-08-04T06:13:24.062Z,28.89
2023-08-04T06:15:58.571Z,28.97
2023-08-04T06:18:32.241Z,29.07
2023-08-04T06:21:14.540Z,29.15
2023-08-04T06:23:47.828Z,29.24
2023-08-04T06:26:22.243Z,29.36
2023-08-04T06:28:56.428Z,29.46
2023-08-04T06:31:28.800Z,29.59
2023-08-04T06:34:01.817Z,29.73
2023-08-04T06:36:34.882Z,29.87
2023-08-04T06:39:07.551Z,30.01
2023-08-04T06:41:42.200Z,30.09
2023-08-04T06:44:16.495Z,30.21
2023-08-04T06:46:48.853Z,30.35
2023-08-04T06:49:21.116Z,30.49
2023-08-04T06:51:53.608Z,30.67
2023-08-04T06:54:26.065Z,30.83
2023-08-04T06:56:58.283Z,31.05
2023-08-04T06:59:31.235Z,31.27
2023-08-04T07:02:03.607Z,31.45
2023-08-04T07:04:36.037Z,31.64
2023-08-04T07:07:09.210Z,31.85
2023-08-04T07:09:41.610Z,32.05
2023-08-04T07:12:14.175Z,32.21
2023-08-04T07:14:46.399Z,32.36
2023-08-04T07:17:18.623Z,32.47
2023-08-04T07:19:52.013Z,32.60
2023-08-04T07:22:24.309Z,32.79
2023-08-04T07:24:56.692Z,32.99
2023-08-04T07:27:29.010Z,33.17
2023-08-04T07:30:01.589Z,33.29
2023-08-04T07:32:34.009Z,33.42
2023-08-04T07:35:07.189Z,33.48
2023-08-04T07:37:39.624Z,33.59
2023-08-04T07:40:14.854Z,33.70
2023-08-04T07:42:47.195Z,33.82
2023-08-04T07:45:20.246Z,33.97
2023-08-04T07:47:52.764Z,34.15
2023-08-04T07:50:25.202Z,34.32
2023-08-04T07:52:57.489Z,34.49
2023-08-04T07:55:29.787Z,34.66
2023-08-04T07:58:02.201Z,34.79
2023-08-04T08:00:34.702Z,34.86
2023-08-04T08:03:07.280Z,35.03
2023-08-04T08:05:39.802Z,35.16
2023-08-04T08:08:12.109Z,35.20
2023-08-04T08:10:44.706Z,35.24
2023-08-04T08:13:17.061Z,35.33
2023-08-04T08:15:49.539Z,35.44
2023-08-04T08:18:22.603Z,35.53
2023-08-04T08:20:54.906Z,35.60
2023-08-04T08:23:27.177Z,35.70
2023-08-04T08:25:59.507Z,35.81
2023-08-04T08:28:31.933Z,35.92
2023-08-04T08:31:04.222Z,36.04
2023-08-04T08:33:36.829Z,36.14
2023-08-04T08:36:09.180Z,36.20
2023-08-04T08:38:41.455Z,36.29
2023-08-04T08:41:14.918Z,36.44
2023-08-04T08:43:48.116Z,36.62
2023-08-04T08:46:21.160Z,36.71
2023-08-04T08:48:54.141Z,36.84
2023-08-04T08:51:28.045Z,37.12
2023-08-04T08:54:00.563Z,37.40
2023-08-04T08:56:32.872Z,37.59
2023-08-04T08:59:05.547Z,37.72
2023-08-04T09:01:37.923Z,37.93
2023-08-04T09:04:10.211Z,38.09
2023-08-04T09:06:42.820Z,38.23
2023-08-04T09:09:15.319Z,38.41
2023-08-04T09:11:48.052Z,38.50
2023-08-04T09:14:20.934Z,38.55
2023-08-04T09:16:53.547Z,38.70
2023-08-04T09:19:26.089Z,38.91
2023-08-04T09:22:02.143Z,39.10
2023-08-04T09:24:35.017Z,39.23
2023-08-04T09:27:08.366Z,39.37
2023-08-04T09:29:40.954Z,39.61
2023-08-04T09:32:16.250Z,39.85
2023-08-04T09:34:49.560Z,40.13
2023-08-04T09:37:22.071Z,40.44
2023-08-04T09:39:54.551Z,40.66
2023-08-04T09:42:27.258Z,40.77
2023-08-04T09:45:00.018Z,40.91
2023-08-04T09:47:32.656Z,41.08
2023-08-04T09:50:06.049Z,41.41
2023-08-04T09:52:38.861Z,41.49
2023-08-04T09:55:12.317Z,41.42
2023-08-04T09:57:44.918Z,41.68
2023-08-04T10:00:18.911Z,42.14
2023-08-04T10:02:51.665Z,42.47
2023-08-04T10:05:24.502Z,42.51
2023-08-04T10:07:57.061Z,42.54
2023-08-04T10:10:29.345Z,42.69
2023-08-04T10:13:02.243Z,42.94
2023-08-04T10:15:34.738Z,43.15
2023-08-04T10:18:08.456Z,43.23
2023-08-04T10:20:40.769Z,43.26
2023-08-04T10:23:15.147Z,43.29
2023-08-04T10:25:57.812Z,43.30
2023-08-04T10:28:30.120Z,43.51
2023-08-04T10:31:14.949Z,43.77
2023-08-04T10:33:47.253Z,44.03
2023-08-04T10:36:20.724Z,44.19
2023-08-04T10:38:55.760Z,44.34
2023-08-04T10:41:27.938Z,44.63
2023-08-04T10:44:03.798Z,44.76
2023-08-04T10:46:37.478Z,44.81
2023-08-04T10:49:10.045Z,44.84
2023-08-04T10:51:42.263Z,44.69
2023-08-04T10:54:14.587Z,44.66
2023-08-04T10:56:49.364Z,44.70
2023-08-04T10:59:21.497Z,44.74
2023-08-04T11:01:53.663Z,44.78
2023-08-04T11:04:26.191Z,44.98
2023-08-04T11:07:01.203Z,45.40
2023-08-04T11:09:33.675Z,45.44
2023-08-04T11:12:06.599Z,45.32
2023-08-04T11:14:39.738Z,45.29
2023-08-04T11:17:16.952Z,45.32
2023-08-04T11:19:50.466Z,45.43
2023-08-04T11:22:24.410Z,45.55
2023-08-04T11:24:57.004Z,45.74
2023-08-04T11:27:29.289Z,46.03
2023-08-04T11:30:01.515Z,46.10
2023-08-04T11:32:33.828Z,46.05
2023-08-04T11:50:39.128Z,47.44
2023-08-04T11:53:15.471Z,48.14
2023-08-04T11:56:04.311Z,47.71
2023-08-04T11:58:46.502Z,47.36
2023-08-04T12:01:40.514Z,47.25
2023-08-04T12:04:27.931Z,47.20
2023-08-04T12:07:05.010Z,47.30
2023-08-04T12:09:37.745Z,47.60
2023-08-04T12:12:14.227Z,47.83
2023-08-04T12:15:01.646Z,47.55
2023-08-04T12:17:42.826Z,47.22
2023-08-04T12:20:14.849Z,46.91
2023-08-04T12:22:47.579Z,46.65
2023-08-04T12:25:19.946Z,46.76
2023-08-04T12:27:52.321Z,47.07
2023-08-04T12:30:24.557Z,46.96
2023-08-04T12:32:56.799Z,46.56
2023-08-04T12:35:29.062Z,46.34
2023-08-04T12:38:05.283Z,46.21
2023-08-04T12:40:38.783Z,46.19
2023-08-04T12:43:11.013Z,46.27
2023-08-04T12:45:43.194Z,46.48
2023-08-04T12:48:15.328Z,46.59
2023-08-04T12:50:47.589Z,46.42
2023-08-04T12:53:20.021Z,46.34
2023-08-04T12:55:52.592Z,46.18
2023-08-04T12:58:25.051Z,46.13
2023-08-04T13:00:57.380Z,46.19
2023-08-04T13:03:29.569Z,46.32
2023-08-04T13:06:01.840Z,46.19
2023-08-04T13:08:34.103Z,45.75
2023-08-04T13:19:50.297Z,45.33
2023-08-04T13:22:22.514Z,45.32
2023-08-04T13:28:09.911Z,45.30
2023-08-04T13:30:46.383Z,45.19
2023-08-04T13:33:23.745Z,44.85
2023-08-04T13:35:56.245Z,44.64
2023-08-04T13:38:28.681Z,44.73
2023-08-04T13:41:01.007Z,44.84
2023-08-04T13:43:33.430Z,45.01
2023-08-04T13:46:05.762Z,45.09
2023-08-04T13:48:38.097Z,45.14
2023-08-04T13:51:24.999Z,45.14
2023-08-04T13:54:00.080Z,45.24
2023-08-04T13:56:32.480Z,45.38
2023-08-04T13:59:04.859Z,45.52
2023-08-04T14:01:37.771Z,45.50
2023-08-04T14:04:10.450Z,45.47
2023-08-04T14:06:42.926Z,45.52
2023-08-04T14:09:15.409Z,45.48
2023-08-04T14:11:48.196Z,45.43
2023-08-04T14:14:21.075Z,45.39
2023-08-04T14:16:53.409Z,45.37
2023-08-04T14:19:25.850Z,45.43
2023-08-04T14:21:58.342Z,45.45
2023-08-04T14:24:30.874Z,45.47
2023-08-04T14:27:04.111Z,45.34
2023-08-04T14:29:36.543Z,45.17
2023-08-04T14:32:09.635Z,45.04
2023-08-04T14:34:42.072Z,44.95
2023-08-04T14:37:14.603Z,44.91
2023-08-04T14:39:47.281Z,44.87
2023-08-04T14:42:20.207Z,44.76
2023-08-04T14:44:52.507Z,44.70
2023-08-04T14:47:25.024Z,44.58
2023-08-04T14:49:57.411Z,44.50
2023-08-04T14:52:29.680Z,44.31
2023-08-04T14:55:02.192Z,44.01
2023-08-04T14:57:34.417Z,43.61
2023-08-04T15:00:08.900Z,43.30
2023-08-04T15:02:41.725Z,43.03
2023-08-04T15:05:14.657Z,42.74
2023-08-04T15:07:47.173Z,42.47
2023-08-04T15:10:21.471Z,42.28
2023-08-04T15:12:53.889Z,42.16
2023-08-04T15:15:27.205Z,42.08
2023-08-04T15:17:59.846Z,41.97
2023-08-04T15:20:32.198Z,41.89
2023-08-04T15:23:04.737Z,41.74
2023-08-04T15:25:37.290Z,41.59
2023-08-04T15:28:09.836Z,41.50
2023-08-04T15:30:42.411Z,41.39
2023-08-04T15:33:16.675Z,41.28
2023-08-04T15:35:52.658Z,41.14
2023-08-04T15:38:24.865Z,41.04
2023-08-04T15:41:04.562Z,40.93
2023-08-04T15:43:38.596Z,40.81
2023-08-04T15:46:11.473Z,40.68
2023-08-04T15:48:43.752Z,40.56
2023-08-04T15:51:16.372Z,40.46
2023-08-04T15:53:50.293Z,40.38
2023-08-04T15:56:22.689Z,40.34
2023-08-04T15:58:55.147Z,40.22
2023-08-04T16:01:27.578Z,40.11
2023-08-04T16:03:59.914Z,40.06
2023-08-04T16:06:32.190Z,39.99
2023-08-04T16:09:05.408Z,39.89
2023-08-04T16:11:38.013Z,39.82
2023-08-04T16:14:10.649Z,39.79
2023-08-04T16:16:43.156Z,39.77
2023-08-04T16:19:16.854Z,39.69
2023-08-04T16:21:49.318Z,39.65
2023-08-04T16:24:21.644Z,39.57
2023-08-04T16:26:55.165Z,39.53
2023-08-04T16:29:27.463Z,39.48
2023-08-04T16:31:59.832Z,39.42
2023-08-04T16:34:32.251Z,39.36
2023-08-04T16:37:04.876Z,39.29
2023-08-04T16:39:38.204Z,39.21
2023-08-04T16:42:10.729Z,39.10
2023-08-04T16:44:42.941Z,38.96
2023-08-04T16:47:15.271Z,38.79
2023-08-04T16:49:48.299Z,38.64
2023-08-04T16:52:20.610Z,38.52
2023-08-04T16:54:53.330Z,38.42
2023-08-04T16:57:26.810Z,38.31
2023-08-04T16:59:59.646Z,38.15
2023-08-04T17:02:32.074Z,38.00
2023-08-04T17:05:05.347Z,37.89
2023-08-04T17:07:37.762Z,37.74
2023-08-04T17:10:11.422Z,37.65
2023-08-04T17:12:43.941Z,37.61
2023-08-04T17:15:29.927Z,37.53
2023-08-04T17:18:09.574Z,37.38
2023-08-04T17:20:42.031Z,37.25
2023-08-04T17:23:14.317Z,37.16
2023-08-04T17:25:46.659Z,37.08
2023-08-04T17:28:21.493Z,36.97
2023-08-04T17:31:01.560Z,36.87
2023-08-04T17:33:35.145Z,36.77
2023-08-04T17:36:12.623Z,36.64
2023-08-04T17:38:44.823Z,36.48
2023-08-04T17:41:19.142Z,36.36
2023-08-04T17:43:51.950Z,36.25
2023-08-04T17:46:24.528Z,36.12
2023-08-04T17:48:58.291Z,36.04
2023-08-04T17:51:30.572Z,35.95
2023-08-04T17:54:03.115Z,35.83
2023-08-04T17:56:37.449Z,35.69
2023-08-04T17:59:09.875Z,35.56
2023-08-04T18:01:43.443Z,35.45
2023-08-04T18:04:16.734Z,35.38
2023-08-04T18:06:49.266Z,35.29
2023-08-04T18:09:21.740Z,35.20
2023-08-04T18:11:54.079Z,35.09
2023-08-04T18:14:26.390Z,35.01
2023-08-04T18:16:58.475Z,34.94
2023-08-04T18:19:30.986Z,34.87
2023-08-04T18:22:04.451Z,34.81
2023-08-04T18:24:38.483Z,34.75
2023-08-04T18:27:14.060Z,34.73
2023-08-04T18:29:46.898Z,34.67
2023-08-04T18:32:21.067Z,34.57
2023-08-04T18:34:54.179Z,34.51
2023-08-04T18:37:26.473Z,34.47
2023-08-04T18:40:04.729Z,34.42
2023-08-04T18:42:39.439Z,34.34
2023-08-04T18:45:14.109Z,34.20
2023-08-04T18:47:46.932Z,34.10
2023-08-04T18:50:20.423Z,34.06
2023-08-04T18:52:53.803Z,34.00
2023-08-04T18:55:27.331Z,33.90
2023-08-04T18:57:59.950Z,33.82
2023-08-04T19:00:32.498Z,33.74
2023-08-04T19:03:05.029Z,33.68
2023-08-04T19:05:37.702Z,33.61
2023-08-04T19:08:13.234Z,33.52
2023-08-04T19:10:45.492Z,33.44
2023-08-04T19:13:17.814Z,33.33
2023-08-04T19:15:50.031Z,33.21
2023-08-04T19:18:22.446Z,33.14
2023-08-04T19:20:54.746Z,33.08
2023-08-04T19:23:28.606Z,33.03
2023-08-04T19:26:02.700Z,32.95
2023-08-04T19:28:36.546Z,32.86
2023-08-04T19:31:08.982Z,32.78
2023-08-04T19:33:46.339Z,32.70
2023-08-04T19:36:19.733Z,32.64
2023-08-04T19:38:54.358Z,32.54
2023-08-04T19:41:29.282Z,32.46
2023-08-04T19:49:34.441Z,32.32
2023-08-04T19:51:38.379Z,32.20
2023-08-04T19:54:18.801Z,32.13
2023-08-04T19:56:53.260Z,32.09
2023-08-04T19:59:27.933Z,32.08
2023-08-04T20:02:03.176Z,32.06
2023-08-04T20:04:39.289Z,32.04
2023-08-04T20:07:11.722Z,32.00
2023-08-04T20:09:48.596Z,31.91
2023-08-04T20:12:22.173Z,31.86
2023-08-04T20:14:56.296Z,31.81
2023-08-04T20:17:31.041Z,31.78
2023-08-04T20:20:14.484Z,31.71
2023-08-04T20:22:47.444Z,31.64
2023-08-04T20:25:22.990Z,31.57
2023-08-04T20:27:57.702Z,31.50
2023-08-04T20:30:33.862Z,31.46
2023-08-04T20:33:11.190Z,31.36
2023-08-04T20:35:46.017Z,31.25
2023-08-04T20:38:18.972Z,31.19
2023-08-04T20:41:01.786Z,31.10
2023-08-04T20:43:34.970Z,31.03
2023-08-04T20:46:13.502Z,31.03
2023-08-04T20:48:47.586Z,31.00
2023-08-04T20:51:20.317Z,30.97
2023-08-04T20:53:54.744Z,30.89
2023-08-04T20:56:37.155Z,30.84
2023-08-04T20:59:12.202Z,30.82
2023-08-04T21:01:47.699Z,30.79
2023-08-04T21:07:06.704Z,30.72
2023-08-04T21:11:32.171Z,30.54
2023-08-04T21:14:32.635Z,30.48
2023-08-04T21:17:05.008Z,30.44
2023-08-04T21:20:06.895Z,30.41
2023-08-04T21:22:58.209Z,30.38
2023-08-04T21:26:08.979Z,30.34
2023-08-04T21:28:59.466Z,30.31
2023-08-04T21:32:11.749Z,30.29
2023-08-04T21:34:42.211Z,30.25
2023-08-04T21:37:16.944Z,30.27
2023-08-04T21:39:53.664Z,30.32
2023-08-04T21:42:34.211Z,30.33
2023-08-04T21:45:23.913Z,30.30
2023-08-04T21:48:01.487Z,30.27
2023-08-04T21:50:41.912Z,30.25
2023-08-04T21:53:15.132Z,30.21
2023-08-04T21:55:57.100Z,30.18
2023-08-04T21:58:31.846Z,30.11
2023-08-04T22:01:10.597Z,30.06
2023-08-04T22:03:43.553Z,30.02
2023-08-04T22:06:17.459Z,29.98
2023-08-04T22:11:58.606Z,29.90
2023-08-04T22:14:39.571Z,29.91
2023-08-04T22:18:19.187Z,29.89
2023-08-04T22:21:27.267Z,29.81
2023-08-04T22:24:17.116Z,29.71
2023-08-04T22:27:21.035Z,29.63
2023-08-04T22:30:36.989Z,29.54
2023-08-04T22:36:08.110Z,29.42
2023-08-04T22:36:56.697Z,29.36
2023-08-04T22:39:56.580Z,29.31
2023-08-04T22:43:13.485Z,29.31
2023-08-04T22:46:52.110Z,29.29
2023-08-04T22:49:27.552Z,29.28
2023-08-04T22:52:02.982Z,29.25
2023-08-04T22:54:36.144Z,29.19
2023-08-04T22:57:10.477Z,29.12
2023-08-04T22:59:43.207Z,29.06
2023-08-04T23:02:16.570Z,29.06
2023-08-04T23:04:49.615Z,29.04
2023-08-04T23:07:27.695Z,28.95
2023-08-04T23:10:01.312Z,28.90
2023-08-04T23:12:36.574Z,28.83
2023-08-04T23:15:12.452Z,28.77
2023-08-04T23:17:53.676Z,28.69
2023-08-04T23:20:30.155Z,28.68
2023-08-04T23:23:04.521Z,28.61
2023-08-04T23:25:39.724Z,28.57
2023-08-04T23:28:17.066Z,28.47
2023-08-04T23:42:03.302Z,28.00
2023-08-04T23:44:35.930Z,27.89
2023-08-04T23:47:09.487Z,27.84
2023-08-04T23:49:42.613Z,27.79
2023-08-04T23:52:15.177Z,27.76
2023-08-04T23:54:48.203Z,27.68
2023-08-04T23:57:21.210Z,27.62
2023-08-04T23:59:54.936Z,27.45
